createdAt,value
2016-06-06T08:40:07.277Z,1014.85
2016-06-06T08:41:07.264Z,1014.85
2016-06-06T08:42:07.252Z,1014.84
2016-06-06T08:43:07.239Z,1014.85
2016-06-06T08:44:07.241Z,1014.9
2016-06-06T08:45:07.228Z,1014.89
2016-06-06T08:46:07.215Z,1014.9
2016-06-06T08:47:07.218Z,1014.93
2016-06-06T08:48:07.205Z,1014.93
2016-06-06T08:49:07.208Z,1014.93
2016-06-06T08:50:07.194Z,1014.93
2016-06-06T08:51:07.182Z,1014.9
2016-06-06T08:52:07.169Z,1014.88
2016-06-06T08:53:07.171Z,1014.96
2016-06-06T08:54:07.159Z,1014.88
2016-06-06T08:55:07.146Z,1014.87
2016-06-06T08:56:07.148Z,1014.86
2016-06-06T08:57:07.151Z,1014.86
2016-06-06T08:58:07.137Z,1014.88
2016-06-06T08:59:07.141Z,1014.86
2016-06-06T09:00:07.128Z,1014.95
2016-06-06T09:01:07.115Z,1014.94
2016-06-06T09:02:07.118Z,1014.98
2016-06-06T09:03:07.120Z,1015.02
2016-06-06T09:04:07.107Z,1014.98
2016-06-06T09:05:07.095Z,1015.01
2016-06-06T09:06:07.097Z,1015.04
2016-06-06T09:07:07.084Z,1015.04
2016-06-06T09:08:07.071Z,1015.03
2016-06-06T09:09:07.075Z,1015
2016-06-06T09:10:07.061Z,1014.96
2016-06-06T09:11:07.064Z,1014.99
2016-06-06T09:12:07.051Z,1014.99
2016-06-06T09:13:07.053Z,1014.95
2016-06-06T09:14:07.306Z,1014.97
2016-06-06T09:15:07.043Z,1014.94
2016-06-06T09:16:07.046Z,1014.95
2016-06-06T09:17:07.033Z,1014.95
2016-06-06T09:18:07.036Z,1014.93
2016-06-06T09:19:07.022Z,1014.96
2016-06-06T09:20:07.025Z,1015.01
2016-06-06T09:21:07.013Z,1014.98
2016-06-06T09:22:07.015Z,1014.99
2016-06-06T09:23:07.002Z,1015.01
2016-06-06T09:24:07.005Z,1015.01
2016-06-06T09:25:07.007Z,1015.02
2016-06-06T09:26:06.995Z,1015.01
2016-06-06T09:27:06.982Z,1015.02
2016-06-06T09:28:06.985Z,1015.02
2016-06-06T09:29:06.987Z,1015
2016-06-06T09:30:06.990Z,1015.02
2016-06-06T09:31:06.976Z,1015.07
2016-06-06T09:32:06.979Z,1015.05
2016-06-06T09:33:06.967Z,1015.07
2016-06-06T09:34:06.985Z,1015.07
2016-06-06T09:35:06.973Z,1015.08
2016-06-06T09:36:06.975Z,1015.07
2016-06-06T09:37:06.962Z,1015.09
2016-06-06T09:38:06.964Z,1015.1
2016-06-06T09:39:06.967Z,1015.13
2016-06-06T09:40:06.970Z,1015.11
2016-06-06T09:41:06.957Z,1015.14
2016-06-06T09:42:06.959Z,1015.08
2016-06-06T09:43:06.947Z,1015.13
2016-06-06T09:44:06.949Z,1015.16
2016-06-06T09:45:06.953Z,1015.19
2016-06-06T09:46:06.939Z,1015.12
2016-06-06T09:47:06.942Z,1015.1
2016-06-06T09:48:06.944Z,1015.13
2016-06-06T09:49:06.947Z,1015.08
2016-06-06T09:50:06.949Z,1015.09
2016-06-06T09:51:06.937Z,1015.11
2016-06-06T09:52:06.955Z,1015.12
2016-06-06T09:53:06.943Z,1015.1
2016-06-06T09:54:06.946Z,1015.06
2016-06-06T09:55:06.948Z,1015.07
2016-06-06T09:56:06.951Z,1015.01
2016-06-06T09:57:06.954Z,1015.06
2016-06-06T09:58:06.940Z,1015.05
2016-06-06T09:59:07.162Z,1015.06
2016-06-06T10:00:06.946Z,1015.04
2016-06-06T10:01:06.933Z,1015.01
2016-06-06T10:02:06.951Z,1014.99
2016-06-06T10:03:06.938Z,1015.04
2016-06-06T10:04:06.940Z,1015.05
2016-06-06T10:05:06.959Z,1015.02
2016-06-06T10:06:06.931Z,1014.99
2016-06-06T10:07:06.934Z,1015
2016-06-06T10:08:06.936Z,1014.97
2016-06-06T10:09:06.939Z,1014.96
2016-06-06T10:10:06.941Z,1014.96
2016-06-06T10:11:06.945Z,1014.99
2016-06-06T10:12:06.931Z,1014.94
2016-06-06T10:13:06.933Z,1014.96
2016-06-06T10:14:07.109Z,1014.93
2016-06-06T10:15:06.939Z,1014.95
2016-06-06T10:16:06.942Z,1014.94
2016-06-06T10:17:06.928Z,1014.92
2016-06-06T10:18:06.931Z,1014.92
2016-06-06T10:19:06.934Z,1014.94
2016-06-06T10:20:06.937Z,1014.94
2016-06-06T10:21:06.939Z,1014.94
2016-06-06T10:22:06.927Z,1014.91
2016-06-06T10:23:06.945Z,1014.9
2016-06-06T10:24:06.932Z,1014.87
2016-06-06T10:25:06.935Z,1014.86
2016-06-06T10:26:06.919Z,1014.91
2016-06-06T10:27:06.922Z,1014.86
2016-06-06T10:28:06.924Z,1014.86
2016-06-06T10:29:06.926Z,1014.82
2016-06-06T10:30:06.930Z,1014.8
2016-06-06T10:31:06.932Z,1014.78
2016-06-06T10:32:06.920Z,1014.82
2016-06-06T10:33:06.922Z,1014.81
2016-06-06T10:34:06.925Z,1014.76
2016-06-06T10:35:06.928Z,1014.73
2016-06-06T10:36:06.915Z,1014.74
2016-06-06T10:37:06.917Z,1014.74
2016-06-06T10:38:06.920Z,1014.73
2016-06-06T10:39:07.016Z,1014.73
2016-06-06T10:40:06.926Z,1014.72
2016-06-06T10:41:06.928Z,1014.7
2016-06-06T10:42:06.915Z,1014.72
2016-06-06T10:43:06.902Z,1014.69
2016-06-06T10:44:06.983Z,1014.71
2016-06-06T10:45:07.845Z,1014.68
2016-06-06T10:46:06.895Z,1014.7
2016-06-06T10:47:06.913Z,1014.72
2016-06-06T10:48:06.900Z,1014.73
2016-06-06T10:49:06.887Z,1014.72
2016-06-06T10:50:06.889Z,1014.7
2016-06-06T10:51:06.892Z,1014.69
2016-06-06T10:52:06.880Z,1014.7
2016-06-06T10:53:06.883Z,1014.66
2016-06-06T10:54:06.885Z,1014.66
2016-06-06T10:55:06.872Z,1014.6
2016-06-06T10:56:06.875Z,1014.62
2016-06-06T10:57:06.877Z,1014.61
2016-06-06T10:58:06.865Z,1014.59
2016-06-06T10:59:06.882Z,1014.6
2016-06-06T11:00:06.870Z,1014.57
2016-06-06T11:01:06.857Z,1014.58
2016-06-06T11:02:06.860Z,1014.59
2016-06-06T11:03:06.862Z,1014.59
2016-06-06T11:04:06.865Z,1014.57
2016-06-06T11:05:06.852Z,1014.57
2016-06-06T11:06:06.855Z,1014.57
2016-06-06T11:07:06.858Z,1014.56
2016-06-06T11:08:06.845Z,1014.59
2016-06-06T11:09:06.847Z,1014.57
2016-06-06T11:10:06.834Z,1014.51
2016-06-06T11:11:06.837Z,1014.55
2016-06-06T11:12:06.824Z,1014.52
2016-06-06T11:13:06.826Z,1014.55
2016-06-06T11:14:06.829Z,1014.58
2016-06-06T11:15:06.817Z,1014.55
2016-06-06T11:16:06.819Z,1014.58
2016-06-06T11:17:06.822Z,1014.52
2016-06-06T11:18:06.839Z,1014.53
2016-06-06T11:19:06.828Z,1014.56
2016-06-06T11:20:06.814Z,1014.52
2016-06-06T11:21:06.817Z,1014.53
2016-06-06T11:22:06.805Z,1014.52
2016-06-06T11:23:06.807Z,1014.53
2016-06-06T11:24:06.810Z,1014.53
2016-06-06T11:25:06.813Z,1014.54
2016-06-06T11:26:06.799Z,1014.49
2016-06-06T11:27:06.802Z,1014.51
2016-06-06T11:28:06.789Z,1014.53
2016-06-06T11:29:06.807Z,1014.51
2016-06-06T11:30:06.794Z,1014.51
2016-06-06T11:31:06.782Z,1014.52
2016-06-06T11:32:06.784Z,1014.49
2016-06-06T11:33:06.787Z,1014.43
2016-06-06T11:34:06.774Z,1014.43
2016-06-06T11:35:06.776Z,1014.49
2016-06-06T11:36:06.779Z,1014.48
2016-06-06T11:37:06.813Z,1014.47
2016-06-06T11:38:06.769Z,1014.5
2016-06-06T11:39:06.756Z,1014.48
2016-06-06T11:40:06.759Z,1014.51
2016-06-06T11:41:06.761Z,1014.5
2016-06-06T11:42:06.764Z,1014.5
2016-06-06T11:43:06.751Z,1014.49
2016-06-06T11:44:06.754Z,1014.46
2016-06-06T11:45:06.756Z,1014.46
2016-06-06T11:46:06.744Z,1014.5
2016-06-06T11:47:06.747Z,1014.45
2016-06-06T11:48:06.749Z,1014.51
2016-06-06T11:49:06.736Z,1014.47
2016-06-06T11:50:06.739Z,1014.43
2016-06-06T11:51:06.726Z,1014.45
2016-06-06T11:52:06.728Z,1014.41
2016-06-06T11:53:06.731Z,1014.38
2016-06-06T11:54:06.734Z,1014.36
2016-06-06T11:55:06.721Z,1014.38
2016-06-06T11:56:06.724Z,1014.33
2016-06-06T11:57:06.727Z,1014.33
2016-06-06T11:58:06.729Z,1014.34
2016-06-06T11:59:07.325Z,1014.35
2016-06-06T12:00:07.202Z,1014.35
2016-06-06T12:01:06.706Z,1014.3
2016-06-06T12:02:06.771Z,1014.32
2016-06-06T12:03:06.710Z,1014.32
2016-06-06T12:04:06.730Z,1014.29
2016-06-06T12:05:06.702Z,1014.31
2016-06-06T12:06:06.751Z,1014.3
2016-06-06T12:07:06.706Z,1014.32
2016-06-06T12:08:06.710Z,1014.26
2016-06-06T12:09:06.712Z,1014.26
2016-06-06T12:10:06.698Z,1014.24
2016-06-06T12:11:06.702Z,1014.22
2016-06-06T12:12:06.689Z,1014.26
2016-06-06T12:13:06.692Z,1014.23
2016-06-06T12:14:06.726Z,1014.24
2016-06-06T12:15:06.681Z,1014.27
2016-06-06T12:16:06.684Z,1014.2
2016-06-06T12:17:06.687Z,1014.22
2016-06-06T12:18:06.689Z,1014.19
2016-06-06T12:19:06.676Z,1014.23
2016-06-06T12:20:06.679Z,1014.17
2016-06-06T12:21:06.681Z,1014.16
2016-06-06T12:22:06.669Z,1014.12
2016-06-06T12:23:06.672Z,1014.13
2016-06-06T12:24:06.674Z,1014.12
2016-06-06T12:25:06.708Z,1014.08
2016-06-06T12:26:06.647Z,1014.06
2016-06-06T12:27:06.650Z,1014.05
2016-06-06T12:28:06.653Z,1014.04
2016-06-06T12:29:06.655Z,1014.01
2016-06-06T12:30:06.987Z,1014.01
2016-06-06T12:31:06.646Z,1014.02
2016-06-06T12:32:06.649Z,1013.96
2016-06-06T12:33:06.746Z,1013.9
2016-06-06T12:34:06.638Z,1013.91
2016-06-06T12:35:06.640Z,1013.94
2016-06-06T12:36:06.644Z,1013.91
2016-06-06T12:37:06.646Z,1013.92
2016-06-06T12:38:06.634Z,1013.9
2016-06-06T12:39:06.636Z,1013.86
2016-06-06T12:40:06.623Z,1013.89
2016-06-06T12:41:06.626Z,1013.88
2016-06-06T12:42:06.629Z,1013.88
2016-06-06T12:43:06.615Z,1013.87
2016-06-06T12:44:06.619Z,1013.89
2016-06-06T12:45:06.621Z,1013.88
2016-06-06T12:46:06.608Z,1013.93
2016-06-06T12:47:06.611Z,1013.9
2016-06-06T12:48:06.614Z,1013.93
2016-06-06T12:49:06.601Z,1013.94
2016-06-06T12:50:06.603Z,1013.99
2016-06-06T12:51:06.606Z,1013.98
2016-06-06T12:52:06.609Z,1013.99
2016-06-06T12:53:06.595Z,1014.02
2016-06-06T12:54:06.598Z,1014.04
2016-06-06T12:55:06.586Z,1014.03
2016-06-06T12:56:06.589Z,1014.07
2016-06-06T12:57:06.591Z,1014.08
2016-06-06T12:58:06.593Z,1014.08
2016-06-06T12:59:06.627Z,1014.08
2016-06-06T13:00:06.583Z,1014.07
2016-06-06T13:01:06.586Z,1014.08
2016-06-06T13:02:06.636Z,1014.09
2016-06-06T13:03:06.576Z,1014.08
2016-06-06T13:04:06.625Z,1014.1
2016-06-06T13:05:06.581Z,1014.08
2016-06-06T13:06:06.569Z,1014.08
2016-06-06T13:07:06.555Z,1014.08
2016-06-06T13:08:06.557Z,1014.12
2016-06-06T13:09:06.561Z,1014.13
2016-06-06T13:10:06.563Z,1014.14
2016-06-06T13:11:06.566Z,1014.14
2016-06-06T13:12:06.553Z,1014.16
2016-06-06T13:13:06.556Z,1014.17
2016-06-06T13:14:06.652Z,1014.15
2016-06-06T13:15:06.546Z,1014.13
2016-06-06T13:16:06.548Z,1014.13
2016-06-06T13:17:06.551Z,1014.12
2016-06-06T13:18:06.537Z,1014.14
2016-06-06T13:19:06.556Z,1014.14
2016-06-06T13:20:06.528Z,1014.12
2016-06-06T13:21:06.531Z,1014.14
2016-06-06T13:22:06.533Z,1014.17
2016-06-06T13:23:06.536Z,1014.09
2016-06-06T13:24:06.523Z,1014.09
2016-06-06T13:25:06.525Z,1014.05
2016-06-06T13:26:06.528Z,1014.03
2016-06-06T13:27:06.531Z,1014.05
2016-06-06T13:28:06.518Z,1014.06
2016-06-06T13:29:06.521Z,1014.07
2016-06-06T13:30:06.508Z,1014
2016-06-06T13:31:06.510Z,1014.02
2016-06-06T13:32:06.513Z,1014.06
2016-06-06T13:33:06.500Z,1014.07
2016-06-06T13:34:06.502Z,1014.05
2016-06-06T13:35:06.505Z,1014.06
2016-06-06T13:36:06.493Z,1014.05
2016-06-06T13:37:06.496Z,1014.07
2016-06-06T13:38:06.513Z,1014.06
2016-06-06T13:39:06.501Z,1014.04
2016-06-06T13:40:06.488Z,1014.09
2016-06-06T13:41:06.490Z,1014.03
2016-06-06T13:42:06.493Z,1014.07
2016-06-06T13:43:06.479Z,1014.04
2016-06-06T13:44:06.483Z,1014.07
2016-06-06T13:45:06.846Z,1014.02
2016-06-06T13:46:06.473Z,1014.04
2016-06-06T13:47:06.475Z,1013.99
2016-06-06T13:48:06.479Z,1014.02
2016-06-06T13:49:06.465Z,1013.99
2016-06-06T13:50:06.467Z,1014.01
2016-06-06T13:51:06.470Z,1013.99
2016-06-06T13:52:06.458Z,1013.96
2016-06-06T13:53:06.461Z,1013.93
2016-06-06T13:54:06.463Z,1013.91
2016-06-06T13:55:06.466Z,1013.88
2016-06-06T13:56:06.469Z,1013.93
2016-06-06T13:57:06.455Z,1013.91
2016-06-06T13:58:06.458Z,1013.92
2016-06-06T13:59:06.991Z,1013.89
2016-06-06T14:00:06.463Z,1013.9
2016-06-06T14:01:06.450Z,1013.89
2016-06-06T14:02:06.453Z,1013.9
2016-06-06T14:03:06.441Z,1013.89
2016-06-06T14:04:06.443Z,1013.84
2016-06-06T14:05:06.430Z,1013.84
2016-06-06T14:06:06.433Z,1013.87
2016-06-06T14:07:06.436Z,1013.85
2016-06-06T14:08:06.438Z,1013.84
2016-06-06T14:09:06.441Z,1013.83
2016-06-06T14:10:06.427Z,1013.81
2016-06-06T14:11:06.430Z,1013.86
2016-06-06T14:12:06.418Z,1013.78
2016-06-06T14:13:06.421Z,1013.81
2016-06-06T14:14:06.423Z,1013.74
2016-06-06T14:15:06.816Z,1013.82
2016-06-06T14:16:06.413Z,1013.84
2016-06-06T14:17:06.416Z,1013.83
2016-06-06T14:18:06.418Z,1013.8
2016-06-06T14:19:06.405Z,1013.74
2016-06-06T14:20:06.408Z,1013.72
2016-06-06T14:21:06.395Z,1013.71
2016-06-06T14:22:06.397Z,1013.7
2016-06-06T14:23:06.400Z,1013.69
2016-06-06T14:24:06.387Z,1013.67
2016-06-06T14:25:06.390Z,1013.69
2016-06-06T14:26:06.393Z,1013.67
2016-06-06T14:27:06.442Z,1013.7
2016-06-06T14:28:06.382Z,1013.67
2016-06-06T14:29:06.386Z,1013.71
2016-06-06T14:30:06.372Z,1013.76
2016-06-06T14:31:06.374Z,1013.75
2016-06-06T14:32:06.378Z,1013.67
2016-06-06T14:33:06.380Z,1013.72
2016-06-06T14:34:06.367Z,1013.73
2016-06-06T14:35:06.369Z,1013.71
2016-06-06T14:36:06.372Z,1013.71
2016-06-06T14:37:06.375Z,1013.71
2016-06-06T14:38:06.363Z,1013.71
2016-06-06T14:39:06.365Z,1013.72
2016-06-06T14:40:06.369Z,1013.68
2016-06-06T14:41:06.355Z,1013.69
2016-06-06T14:42:06.357Z,1013.7
2016-06-06T14:43:06.345Z,1013.74
2016-06-06T14:44:07.144Z,1013.74
2016-06-06T14:45:06.351Z,1013.74
2016-06-06T14:46:06.353Z,1013.75
2016-06-06T14:47:06.340Z,1013.72
2016-06-06T14:48:06.342Z,1013.69
2016-06-06T14:49:06.346Z,1013.71
2016-06-06T14:50:06.332Z,1013.73
2016-06-06T14:51:06.334Z,1013.72
2016-06-06T14:52:06.353Z,1013.71
2016-06-06T14:53:06.325Z,1013.72
2016-06-06T14:54:06.342Z,1013.71
2016-06-06T14:55:06.330Z,1013.73
2016-06-06T14:56:06.333Z,1013.72
2016-06-06T14:57:06.320Z,1013.72
2016-06-06T14:58:06.306Z,1013.76
2016-06-06T14:59:06.326Z,1013.73
2016-06-06T15:00:06.312Z,1013.72
2016-06-06T15:01:06.315Z,1013.72
2016-06-06T15:02:06.302Z,1013.71
2016-06-06T15:03:06.305Z,1013.67
2016-06-06T15:04:06.308Z,1013.68
2016-06-06T15:05:06.294Z,1013.66
2016-06-06T15:06:06.297Z,1013.65
2016-06-06T15:07:06.285Z,1013.67
2016-06-06T15:08:06.287Z,1013.71
2016-06-06T15:09:06.291Z,1013.72
2016-06-06T15:10:06.277Z,1013.71
2016-06-06T15:11:06.279Z,1013.74
2016-06-06T15:12:06.266Z,1013.72
2016-06-06T15:13:06.269Z,1013.71
2016-06-06T15:14:06.271Z,1013.69
2016-06-06T15:15:06.274Z,1013.7
2016-06-06T15:16:06.262Z,1013.7
2016-06-06T15:17:06.264Z,1013.69
2016-06-06T15:18:06.251Z,1013.69
2016-06-06T15:19:06.254Z,1013.71
2016-06-06T15:20:06.257Z,1013.67
2016-06-06T15:21:06.244Z,1013.68
2016-06-06T15:22:06.246Z,1013.71
2016-06-06T15:23:06.249Z,1013.72
2016-06-06T15:24:06.252Z,1013.72
2016-06-06T15:25:06.240Z,1013.69
2016-06-06T15:26:06.242Z,1013.68
2016-06-06T15:27:06.228Z,1013.69
2016-06-06T15:28:06.231Z,1013.66
2016-06-06T15:29:06.219Z,1013.67
2016-06-06T15:30:06.800Z,1013.65
2016-06-06T15:31:06.209Z,1013.65
2016-06-06T15:32:06.227Z,1013.65
2016-06-06T15:33:06.214Z,1013.64
2016-06-06T15:34:06.216Z,1013.65
2016-06-06T15:35:06.204Z,1013.62
2016-06-06T15:36:06.206Z,1013.66
2016-06-06T15:37:06.209Z,1013.63
2016-06-06T15:38:06.196Z,1013.61
2016-06-06T15:39:06.183Z,1013.59
2016-06-06T15:40:06.186Z,1013.59
2016-06-06T15:41:06.188Z,1013.61
2016-06-06T15:42:06.175Z,1013.57
2016-06-06T15:43:06.177Z,1013.59
2016-06-06T15:44:06.180Z,1013.55
2016-06-06T15:45:06.496Z,1013.55
2016-06-06T15:46:06.171Z,1013.57
2016-06-06T15:47:06.158Z,1013.58
2016-06-06T15:48:06.160Z,1013.54
2016-06-06T15:49:06.163Z,1013.52
2016-06-06T15:50:06.151Z,1013.53
2016-06-06T15:51:06.154Z,1013.47
2016-06-06T15:52:06.218Z,1013.5
2016-06-06T15:53:06.143Z,1013.45
2016-06-06T15:54:06.145Z,1013.46
2016-06-06T15:55:06.132Z,1013.46
2016-06-06T15:56:06.182Z,1013.45
2016-06-06T15:57:06.137Z,1013.4
2016-06-06T15:58:06.125Z,1013.43
2016-06-06T15:59:06.128Z,1013.37
2016-06-06T16:00:06.115Z,1013.35
2016-06-06T16:01:06.117Z,1013.36
2016-06-06T16:02:06.104Z,1013.33
2016-06-06T16:03:06.107Z,1013.33
2016-06-06T16:04:06.109Z,1013.34
2016-06-06T16:05:06.097Z,1013.34
2016-06-06T16:06:06.100Z,1013.33
2016-06-06T16:07:06.102Z,1013.34
2016-06-06T16:08:06.089Z,1013.3
2016-06-06T16:09:06.077Z,1013.3
2016-06-06T16:10:06.080Z,1013.3
2016-06-06T16:11:06.082Z,1013.28
2016-06-06T16:12:06.069Z,1013.26
2016-06-06T16:13:06.072Z,1013.28
2016-06-06T16:14:06.059Z,1013.3
2016-06-06T16:15:06.061Z,1013.33
2016-06-06T16:16:06.049Z,1013.32
2016-06-06T16:17:06.051Z,1013.33
2016-06-06T16:18:06.054Z,1013.32
2016-06-06T16:19:06.041Z,1013.33
2016-06-06T16:20:06.044Z,1013.33
2016-06-06T16:21:06.046Z,1013.32
2016-06-06T16:22:06.033Z,1013.36
2016-06-06T16:23:06.036Z,1013.33
2016-06-06T16:24:06.038Z,1013.35
2016-06-06T16:25:06.026Z,1013.32
2016-06-06T16:26:06.013Z,1013.34
2016-06-06T16:27:06.015Z,1013.33
2016-06-06T16:28:06.003Z,1013.35
2016-06-06T16:29:06.006Z,1013.34
2016-06-06T16:30:06.008Z,1013.34
2016-06-06T16:31:05.995Z,1013.37
2016-06-06T16:32:05.998Z,1013.39
2016-06-06T16:33:05.984Z,1013.38
2016-06-06T16:34:05.987Z,1013.42
2016-06-06T16:35:05.975Z,1013.44
2016-06-06T16:36:05.978Z,1013.41
2016-06-06T16:37:05.980Z,1013.44
2016-06-06T16:38:05.967Z,1013.43
2016-06-06T16:39:05.970Z,1013.45
2016-06-06T16:40:05.956Z,1013.44
2016-06-06T16:41:05.959Z,1013.43
2016-06-06T16:42:05.947Z,1013.41
2016-06-06T16:43:05.954Z,1013.47
2016-06-06T16:44:05.962Z,1013.45
2016-06-06T16:45:06.047Z,1013.43
2016-06-06T16:46:05.961Z,1013.44
2016-06-06T16:47:05.969Z,1013.4
2016-06-06T16:48:05.959Z,1013.47
2016-06-06T16:49:05.947Z,1013.47
2016-06-06T16:50:05.950Z,1013.51
2016-06-06T16:51:05.971Z,1013.52
2016-06-06T16:52:05.959Z,1013.53
2016-06-06T16:53:05.947Z,1013.51
2016-06-06T16:54:05.950Z,1013.53
2016-06-06T16:55:05.939Z,1013.52
2016-06-06T16:56:05.926Z,1013.5
2016-06-06T16:57:05.930Z,1013.5
2016-06-06T16:58:05.933Z,1013.48
2016-06-06T16:59:05.919Z,1013.49
2016-06-06T17:00:05.923Z,1013.44
2016-06-06T17:01:05.911Z,1013.44
2016-06-06T17:02:05.914Z,1013.45
2016-06-06T17:03:05.901Z,1013.42
2016-06-06T17:04:05.903Z,1013.43
2016-06-06T17:05:05.891Z,1013.4
2016-06-06T17:06:05.893Z,1013.43
2016-06-06T17:07:05.897Z,1013.41
2016-06-06T17:08:05.883Z,1013.42
2016-06-06T17:09:05.886Z,1013.39
2016-06-06T17:10:05.873Z,1013.38
2016-06-06T17:11:05.875Z,1013.38
2016-06-06T17:12:05.863Z,1013.37
2016-06-06T17:13:05.866Z,1013.38
2016-06-06T17:14:05.852Z,1013.38
2016-06-06T17:15:05.855Z,1013.35
2016-06-06T17:16:05.842Z,1013.33
2016-06-06T17:17:05.844Z,1013.37
2016-06-06T17:18:05.847Z,1013.3
2016-06-06T17:19:05.835Z,1013.34
2016-06-06T17:20:05.837Z,1013.31
2016-06-06T17:21:05.840Z,1013.32
2016-06-06T17:22:05.827Z,1013.32
2016-06-06T17:23:05.815Z,1013.32
2016-06-06T17:24:05.817Z,1013.29
2016-06-06T17:25:05.804Z,1013.28
2016-06-06T17:26:05.806Z,1013.31
2016-06-06T17:27:05.793Z,1013.28
2016-06-06T17:28:05.796Z,1013.26
2016-06-06T17:29:05.783Z,1013.25
2016-06-06T17:30:05.787Z,1013.25
2016-06-06T17:31:05.789Z,1013.21
2016-06-06T17:32:05.791Z,1013.25
2016-06-06T17:33:05.779Z,1013.22
2016-06-06T17:34:05.781Z,1013.24
2016-06-06T17:35:05.767Z,1013.25
2016-06-06T17:36:05.770Z,1013.2
2016-06-06T17:37:05.758Z,1013.19
2016-06-06T17:38:05.744Z,1013.22
2016-06-06T17:39:05.748Z,1013.18
2016-06-06T17:40:05.735Z,1013.19
2016-06-06T17:41:05.737Z,1013.14
2016-06-06T17:42:05.725Z,1013.24
2016-06-06T17:43:05.727Z,1013.22
2016-06-06T17:44:05.746Z,1013.2
2016-06-06T17:45:05.779Z,1013.21
2016-06-06T17:46:05.720Z,1013.2
2016-06-06T17:47:05.707Z,1013.24
2016-06-06T17:48:05.709Z,1013.24
2016-06-06T17:49:05.697Z,1013.27
2016-06-06T17:50:05.699Z,1013.29
2016-06-06T17:51:05.685Z,1013.28
2016-06-06T17:52:05.688Z,1013.23
2016-06-06T17:53:05.676Z,1013.29
2016-06-06T17:54:05.679Z,1013.32
2016-06-06T17:55:05.681Z,1013.3
2016-06-06T17:56:05.668Z,1013.3
2016-06-06T17:57:05.671Z,1013.32
2016-06-06T17:58:05.658Z,1013.31
2016-06-06T17:59:05.661Z,1013.33
2016-06-06T18:00:05.648Z,1013.34
2016-06-06T18:01:05.635Z,1013.37
2016-06-06T18:02:05.637Z,1013.37
2016-06-06T18:03:05.640Z,1013.39
2016-06-06T18:04:05.628Z,1013.36
2016-06-06T18:05:05.630Z,1013.34
2016-06-06T18:06:05.617Z,1013.4
2016-06-06T18:07:05.620Z,1013.4
2016-06-06T18:08:05.622Z,1013.41
2016-06-06T18:09:05.609Z,1013.43
2016-06-06T18:10:05.597Z,1013.46
2016-06-06T18:11:05.599Z,1013.48
2016-06-06T18:12:05.586Z,1013.47
2016-06-06T18:13:05.589Z,1013.51
2016-06-06T18:14:05.577Z,1013.52
2016-06-06T18:15:05.579Z,1013.51
2016-06-06T18:16:05.582Z,1013.48
2016-06-06T18:17:05.569Z,1013.5
2016-06-06T18:18:05.555Z,1013.48
2016-06-06T18:19:05.558Z,1013.49
2016-06-06T18:20:05.546Z,1013.49
2016-06-06T18:21:05.533Z,1013.51
2016-06-06T18:22:05.535Z,1013.52
2016-06-06T18:23:05.538Z,1013.48
2016-06-06T18:24:05.524Z,1013.52
2016-06-06T18:25:05.528Z,1013.53
2016-06-06T18:26:05.514Z,1013.56
2016-06-06T18:27:05.501Z,1013.57
2016-06-06T18:28:05.504Z,1013.55
2016-06-06T18:29:05.507Z,1013.6
2016-06-06T18:30:06.040Z,1013.6
2016-06-06T18:31:05.498Z,1013.61
2016-06-06T18:32:05.484Z,1013.6
2016-06-06T18:33:05.470Z,1013.64
2016-06-06T18:34:05.473Z,1013.64
2016-06-06T18:35:05.461Z,1013.65
2016-06-06T18:36:05.464Z,1013.63
2016-06-06T18:37:05.450Z,1013.65
2016-06-06T18:38:05.453Z,1013.63
2016-06-06T18:39:05.440Z,1013.63
2016-06-06T18:40:05.442Z,1013.66
2016-06-06T18:41:05.430Z,1013.69
2016-06-06T18:42:05.433Z,1013.65
2016-06-06T18:43:05.419Z,1013.65
2016-06-06T18:44:05.423Z,1013.66
2016-06-06T18:45:05.410Z,1013.69
2016-06-06T18:46:05.397Z,1013.68
2016-06-06T18:47:05.399Z,1013.7
2016-06-06T18:48:05.386Z,1013.69
2016-06-06T18:49:05.389Z,1013.7
2016-06-06T18:50:05.376Z,1013.7
2016-06-06T18:51:05.379Z,1013.7
2016-06-06T18:52:05.382Z,1013.76
2016-06-06T18:53:05.369Z,1013.74
2016-06-06T18:54:05.355Z,1013.75
2016-06-06T18:55:05.357Z,1013.73
2016-06-06T18:56:05.346Z,1013.72
2016-06-06T18:57:05.348Z,1013.73
2016-06-06T18:58:05.351Z,1013.74
2016-06-06T18:59:05.338Z,1013.78
2016-06-06T19:00:05.325Z,1013.77
2016-06-06T19:01:05.327Z,1013.74
2016-06-06T19:02:05.330Z,1013.77
2016-06-06T19:03:05.301Z,1013.82
2016-06-06T19:04:05.304Z,1013.77
2016-06-06T19:05:05.306Z,1013.78
2016-06-06T19:06:05.294Z,1013.8
2016-06-06T19:07:05.297Z,1013.84
2016-06-06T19:08:05.284Z,1013.86
2016-06-06T19:09:05.286Z,1013.84
2016-06-06T19:10:05.273Z,1013.83
2016-06-06T19:11:05.261Z,1013.83
2016-06-06T19:12:05.264Z,1013.85
2016-06-06T19:13:05.266Z,1013.86
2016-06-06T19:14:05.253Z,1013.85
2016-06-06T19:15:05.240Z,1013.86
2016-06-06T19:16:05.228Z,1013.85
2016-06-06T19:17:05.230Z,1013.85
2016-06-06T19:18:05.233Z,1013.85
2016-06-06T19:19:05.219Z,1013.81
2016-06-06T19:20:05.207Z,1013.84
2016-06-06T19:21:05.210Z,1013.86
2016-06-06T19:22:05.197Z,1013.82
2016-06-06T19:23:05.199Z,1013.88
2016-06-06T19:24:05.186Z,1013.86
2016-06-06T19:25:05.173Z,1013.85
2016-06-06T19:26:05.176Z,1013.89
2016-06-06T19:27:05.163Z,1013.88
2016-06-06T19:28:05.165Z,1013.88
2016-06-06T19:29:05.168Z,1013.9
2016-06-06T19:30:05.156Z,1013.92
2016-06-06T19:31:05.143Z,1013.9
2016-06-06T19:32:05.145Z,1013.91
2016-06-06T19:33:05.132Z,1013.98
2016-06-06T19:34:05.135Z,1013.96
2016-06-06T19:35:05.294Z,1014.01
2016-06-06T19:36:05.109Z,1013.96
2016-06-06T19:37:05.112Z,1013.96
2016-06-06T19:38:05.115Z,1013.96
2016-06-06T19:39:05.101Z,1013.99
2016-06-06T19:40:05.089Z,1014
2016-06-06T19:41:05.092Z,1014
2016-06-06T19:42:05.078Z,1013.99
2016-06-06T19:43:05.066Z,1014.02
2016-06-06T19:44:05.069Z,1014
2016-06-06T19:45:05.071Z,1014.05
2016-06-06T19:46:05.058Z,1014.08
2016-06-06T19:47:05.061Z,1014.07
2016-06-06T19:48:05.032Z,1014.11
2016-06-06T19:49:05.035Z,1014.1
2016-06-06T19:50:05.021Z,1014.09
2016-06-06T19:51:05.071Z,1014.12
2016-06-06T19:52:05.027Z,1014.09
2016-06-06T19:53:05.014Z,1014.14
2016-06-06T19:54:05.001Z,1014.16
2016-06-06T19:55:04.988Z,1014.12
2016-06-06T19:56:05.007Z,1014.15
2016-06-06T19:57:04.979Z,1014.15
2016-06-06T19:58:04.981Z,1014.14
2016-06-06T19:59:04.984Z,1014.19
2016-06-06T20:00:04.970Z,1014.2
2016-06-06T20:01:04.957Z,1014.17
2016-06-06T20:02:04.945Z,1014.2
2016-06-06T20:03:04.947Z,1014.22
2016-06-06T20:04:04.950Z,1014.21
2016-06-06T20:05:04.938Z,1014.21
2016-06-06T20:06:04.923Z,1014.16
2016-06-06T20:07:04.912Z,1014.19
2016-06-06T20:08:04.898Z,1014.2
2016-06-06T20:09:04.901Z,1014.2
2016-06-06T20:10:04.888Z,1014.23
2016-06-06T20:11:04.891Z,1014.19
2016-06-06T20:12:04.894Z,1014.24
2016-06-06T20:13:04.880Z,1014.23
2016-06-06T20:14:04.883Z,1014.27
2016-06-06T20:15:04.870Z,1014.25
2016-06-06T20:16:04.857Z,1014.27
2016-06-06T20:17:04.844Z,1014.24
2016-06-06T20:18:04.847Z,1014.25
2016-06-06T20:19:04.834Z,1014.22
2016-06-06T20:20:04.836Z,1014.21
2016-06-06T20:21:04.825Z,1014.25
2016-06-06T20:22:04.811Z,1014.23
2016-06-06T20:23:04.813Z,1014.25
2016-06-06T20:24:04.801Z,1014.21
2016-06-06T20:25:04.788Z,1014.21
2016-06-06T20:26:04.806Z,1014.21
2016-06-06T20:27:04.777Z,1014.19
2016-06-06T20:28:04.812Z,1014.24
2016-06-06T20:29:04.768Z,1014.26
2016-06-06T20:30:04.817Z,1014.2
2016-06-06T20:31:04.757Z,1014.23
2016-06-06T20:32:04.744Z,1014.26
2016-06-06T20:33:04.747Z,1014.29
2016-06-06T20:34:04.735Z,1014.27
2016-06-06T20:35:04.721Z,1014.27
2016-06-06T20:36:04.723Z,1014.29
2016-06-06T20:37:04.711Z,1014.31
2016-06-06T20:38:04.698Z,1014.29
2016-06-06T20:39:04.700Z,1014.27
2016-06-06T20:40:04.687Z,1014.25
2016-06-06T20:41:04.675Z,1014.25
2016-06-06T20:42:04.678Z,1014.22
2016-06-06T20:43:04.680Z,1014.24
2016-06-06T20:44:04.667Z,1014.27
2016-06-06T20:45:04.653Z,1014.28
2016-06-06T20:46:04.641Z,1014.27
2016-06-06T20:47:04.644Z,1014.25
2016-06-06T20:48:04.631Z,1014.29